createdAt,value
2022-08-28T00:02:27.547Z,23.65
2022-08-28T00:04:54.168Z,28.05
2022-08-28T00:07:20.833Z,21.58
2022-08-28T00:09:47.450Z,23.08
2022-08-28T00:12:14.515Z,25.08
2022-08-28T00:14:41.113Z,23.15
2022-08-28T00:17:07.824Z,19.25
2022-08-28T00:19:38.426Z,21.15
2022-08-28T00:22:06.497Z,23.80
2022-08-28T00:24:33.830Z,21.20
2022-08-28T00:27:19.091Z,17.60
2022-08-28T00:29:45.807Z,22.17
2022-08-28T00:32:13.733Z,13.95
2022-08-28T00:34:40.368Z,22.33
2022-08-28T00:37:07.307Z,20.45
2022-08-28T00:39:34.674Z,18.30
2022-08-28T00:42:01.547Z,20.25
2022-08-28T00:44:29.013Z,20.13
2022-08-28T00:46:58.390Z,16.52
2022-08-28T00:49:29.431Z,19.55
2022-08-28T00:52:05.817Z,17.47
2022-08-28T00:54:36.919Z,18.05
2022-08-28T00:57:07.793Z,18.08
2022-08-28T00:59:34.571Z,18.98
2022-08-28T01:02:01.312Z,18.40
2022-08-28T01:04:32.258Z,31.98
2022-08-28T01:07:02.465Z,20.48
2022-08-28T01:09:31.777Z,16.63
2022-08-28T01:12:06.600Z,18.60
2022-08-28T01:14:36.701Z,25.30
2022-08-28T01:17:04.682Z,20.98
2022-08-28T01:19:38.780Z,20.98
2022-08-28T01:22:15.540Z,22.38
2022-08-28T01:24:44.979Z,20.52
2022-08-28T01:27:11.697Z,24.05
2022-08-28T01:29:38.350Z,22.52
2022-08-28T01:32:05.520Z,20.70
2022-08-28T01:34:34.566Z,21.10
2022-08-28T01:37:03.399Z,23.00
2022-08-28T01:39:30.418Z,27.17
2022-08-28T01:41:59.481Z,23.75
2022-08-28T01:44:28.041Z,23.65
2022-08-28T01:46:57.813Z,22.33
2022-08-28T01:49:24.915Z,26.58
2022-08-28T01:51:52.392Z,20.63
2022-08-28T01:54:21.539Z,24.05
2022-08-28T01:56:48.048Z,21.35
2022-08-28T01:59:15.508Z,26.10
2022-08-28T02:01:43.474Z,22.48
2022-08-28T02:04:10.939Z,26.88
2022-08-28T02:06:38.103Z,23.17
2022-08-28T02:09:07.021Z,23.95
2022-08-28T02:11:45.379Z,27.33
2022-08-28T02:14:14.154Z,19.38
2022-08-28T02:16:40.719Z,20.95
2022-08-28T02:19:07.279Z,19.60
2022-08-28T02:21:35.491Z,28.73
2022-08-28T02:24:02.384Z,21.10
2022-08-28T02:26:30.304Z,25.45
2022-08-28T02:28:56.996Z,21.63
2022-08-28T02:31:23.847Z,23.38
2022-08-28T02:33:50.774Z,20.90
2022-08-28T02:36:17.932Z,23.05
2022-08-28T02:38:45.928Z,25.90
2022-08-28T02:41:13.644Z,25.90
2022-08-28T02:43:40.711Z,25.70
2022-08-28T02:46:07.349Z,25.80
2022-08-28T02:48:36.837Z,27.25
2022-08-28T02:51:07.244Z,25.40
2022-08-28T02:53:34.335Z,29.33
2022-08-28T02:56:02.905Z,25.05
2022-08-28T02:58:32.808Z,24.33
2022-08-28T03:01:01.737Z,29.13
2022-08-28T03:03:31.162Z,28.65
2022-08-28T03:05:59.976Z,25.25
2022-08-28T03:08:27.975Z,32.85
2022-08-28T03:10:55.198Z,25.00
2022-08-28T03:13:23.054Z,26.42
2022-08-28T03:15:55.976Z,26.92
2022-08-28T03:18:25.350Z,27.88
2022-08-28T03:20:53.650Z,29.90
2022-08-28T03:23:26.376Z,28.17
2022-08-28T03:26:00.059Z,27.48
2022-08-28T03:28:29.964Z,24.15
2022-08-28T03:30:57.677Z,26.45
2022-08-28T03:33:25.414Z,26.40
2022-08-28T03:35:52.463Z,25.65
2022-08-28T03:38:19.648Z,24.55
2022-08-28T03:43:14.115Z,27.23
2022-08-28T03:45:41.243Z,26.70
2022-08-28T03:48:08.404Z,30.08
2022-08-28T03:50:36.139Z,27.10
2022-08-28T03:53:02.966Z,26.40
2022-08-28T03:55:30.239Z,33.63
2022-08-28T03:57:56.817Z,37.53
2022-08-28T04:00:25.541Z,34.17
2022-08-28T04:02:52.263Z,26.58
2022-08-28T04:05:19.333Z,28.67
2022-08-28T04:07:46.016Z,29.83
2022-08-28T04:10:12.858Z,32.50
2022-08-28T04:12:39.441Z,33.28
2022-08-28T04:15:07.192Z,35.08
2022-08-28T04:17:34.375Z,35.20
2022-08-28T04:20:04.441Z,32.70
2022-08-28T04:22:31.049Z,32.28
2022-08-28T04:24:57.641Z,32.90
2022-08-28T04:29:52.236Z,34.88
2022-08-28T04:32:18.885Z,35.83
2022-08-28T04:34:45.524Z,35.15
2022-08-28T04:37:12.355Z,32.17
2022-08-28T04:39:38.928Z,31.65
2022-08-28T04:42:05.632Z,29.55
2022-08-28T04:44:32.311Z,28.73
2022-08-28T04:46:58.957Z,31.17
2022-08-28T04:49:25.874Z,42.90
2022-08-28T04:51:52.829Z,30.95
2022-08-28T04:54:20.092Z,32.40
2022-08-28T04:56:46.691Z,37.38
2022-08-28T04:59:13.280Z,36.10
2022-08-28T05:01:44.031Z,32.35
2022-08-28T05:04:12.272Z,32.63
2022-08-28T05:06:46.151Z,33.47
2022-08-28T05:09:20.416Z,29.77
2022-08-28T05:14:01.741Z,34.10
2022-08-28T05:16:28.435Z,32.72
2022-08-28T05:19:00.236Z,34.20
2022-08-28T05:23:56.455Z,27.52
2022-08-28T05:26:23.627Z,19.52
2022-08-28T05:28:55.575Z,20.60
2022-08-28T05:31:26.744Z,20.30
2022-08-28T05:33:53.663Z,23.02
2022-08-28T05:36:22.682Z,23.40
2022-08-28T05:38:50.645Z,31.17
2022-08-28T05:41:30.080Z,24.52
2022-08-28T05:44:03.040Z,32.15
2022-08-28T05:46:30.241Z,34.78
2022-08-28T05:48:57.592Z,33.72
2022-08-28T05:51:28.504Z,29.10
2022-08-28T05:53:57.451Z,29.30
2022-08-28T05:56:29.805Z,31.65
2022-08-28T05:58:57.683Z,30.08
2022-08-28T06:01:28.483Z,30.77
2022-08-28T06:03:57.390Z,28.50
2022-08-28T06:06:25.224Z,31.85
2022-08-28T06:08:58.981Z,28.67
2022-08-28T06:11:30.502Z,35.83
2022-08-28T06:16:19.900Z,31.52
2022-08-28T06:18:46.954Z,27.45
2022-08-28T06:21:13.824Z,30.52
2022-08-28T06:23:41.167Z,28.33
2022-08-28T06:26:08.068Z,29.90
2022-08-28T06:28:34.768Z,30.77
2022-08-28T06:31:23.964Z,24.92
2022-08-28T06:33:50.539Z,29.25
2022-08-28T06:36:17.076Z,23.63
2022-08-28T06:38:46.582Z,26.60
2022-08-28T06:41:13.908Z,27.08
2022-08-28T06:43:40.563Z,21.77
2022-08-28T06:46:07.639Z,25.95
2022-08-28T06:48:34.599Z,27.60
2022-08-28T06:51:02.181Z,24.55
2022-08-28T06:53:30.918Z,24.88
2022-08-28T06:56:08.611Z,27.35
2022-08-28T06:58:38.154Z,23.20
2022-08-28T07:01:12.243Z,24.40
2022-08-28T07:03:42.532Z,25.30
2022-08-28T07:06:12.855Z,21.17
2022-08-28T07:08:40.596Z,22.65
2022-08-28T07:11:26.073Z,22.83
2022-08-28T07:13:54.138Z,20.35
2022-08-28T07:16:24.922Z,23.35
2022-08-28T07:18:52.051Z,19.47
2022-08-28T07:21:18.737Z,23.38
2022-08-28T07:23:46.165Z,21.55
2022-08-28T07:26:17.039Z,22.90
2022-08-28T07:28:45.408Z,31.43
2022-08-28T07:31:20.537Z,24.27
2022-08-28T07:33:47.459Z,22.20
2022-08-28T07:36:29.921Z,21.50
2022-08-28T07:38:59.590Z,21.60
2022-08-28T07:41:29.370Z,21.92
2022-08-28T07:44:15.267Z,18.25
2022-08-28T07:46:42.207Z,18.17
2022-08-28T07:49:09.241Z,19.38
2022-08-28T07:51:36.399Z,19.13
2022-08-28T07:54:04.055Z,18.15
2022-08-28T07:59:03.364Z,18.30
2022-08-28T08:01:31.038Z,18.30
2022-08-28T08:04:01.678Z,14.63
2022-08-28T08:06:34.056Z,13.93
2022-08-28T08:11:18.726Z,16.00
2022-08-28T08:13:48.197Z,13.57
2022-08-28T08:16:23.510Z,17.52
2022-08-28T08:18:51.364Z,19.98
2022-08-28T08:21:19.913Z,17.80
2022-08-28T08:23:47.836Z,15.50
2022-08-28T08:26:20.100Z,14.57
2022-08-28T08:28:47.573Z,17.08
2022-08-28T08:31:19.904Z,17.25
2022-08-28T08:33:49.681Z,19.90
2022-08-28T08:36:19.837Z,17.70
2022-08-28T08:38:47.083Z,16.48
2022-08-28T08:41:23.718Z,17.83
2022-08-28T08:44:00.925Z,15.65
2022-08-28T08:46:39.690Z,14.93
2022-08-28T08:49:15.631Z,17.70
2022-08-28T08:51:46.319Z,12.32
2022-08-28T08:54:16.192Z,19.43
2022-08-28T08:56:44.660Z,14.25
2022-08-28T08:59:16.823Z,22.95
2022-08-28T09:01:50.880Z,16.35
2022-08-28T09:06:39.912Z,21.52
2022-08-28T09:09:18.474Z,13.85
2022-08-28T09:11:56.522Z,17.92
2022-08-28T09:14:33.920Z,14.15
2022-08-28T09:17:01.647Z,13.63
2022-08-28T09:19:28.309Z,15.23
2022-08-28T09:21:54.971Z,18.33
2022-08-28T09:24:28.421Z,14.65
2022-08-28T09:26:56.594Z,11.55
2022-08-28T09:29:33.118Z,18.55
2022-08-28T09:32:17.878Z,18.65
2022-08-28T09:35:18.945Z,20.35
2022-08-28T09:37:45.747Z,17.40
2022-08-28T09:40:51.015Z,17.10
2022-08-28T09:43:27.569Z,12.65
2022-08-28T09:45:59.578Z,21.92
2022-08-28T09:48:41.341Z,11.85
2022-08-28T09:51:21.585Z,10.93
2022-08-28T09:53:57.183Z,13.18
2022-08-28T09:56:35.992Z,11.05
2022-08-28T09:59:07.793Z,10.30
2022-08-28T10:01:46.439Z,10.95
2022-08-28T10:04:16.639Z,20.75
2022-08-28T10:06:56.822Z,15.85
2022-08-28T10:09:36.881Z,14.48
2022-08-28T10:12:37.564Z,12.55
2022-08-28T10:15:17.900Z,13.32
2022-08-28T10:18:18.400Z,14.70
2022-08-28T10:21:03.545Z,14.02
2022-08-28T10:23:58.571Z,17.27
2022-08-28T10:26:36.490Z,20.10
2022-08-28T10:29:11.200Z,14.43
2022-08-28T10:31:46.776Z,15.77
2022-08-28T10:34:46.717Z,14.52
2022-08-28T10:37:31.775Z,13.98
2022-08-28T10:40:04.403Z,17.23
2022-08-28T10:42:43.555Z,15.10
2022-08-28T10:45:15.440Z,17.83
2022-08-28T10:47:46.016Z,12.70
2022-08-28T10:50:22.166Z,15.18
2022-08-28T10:52:55.849Z,16.33
2022-08-28T10:55:37.709Z,15.13
2022-08-28T10:58:24.400Z,13.43
2022-08-28T11:01:01.620Z,17.33
2022-08-28T11:03:35.527Z,20.20
2022-08-28T11:06:13.459Z,14.32
2022-08-28T11:08:40.504Z,10.57
2022-08-28T11:11:13.704Z,13.48
2022-08-28T11:14:02.477Z,14.88
2022-08-28T11:16:30.176Z,15.80
2022-08-28T11:19:17.461Z,14.32
2022-08-28T11:21:52.949Z,14.80
2022-08-28T11:24:38.443Z,13.68
2022-08-28T11:27:31.030Z,10.77
2022-08-28T11:30:09.548Z,15.82
2022-08-28T11:33:00.802Z,23.25
2022-08-28T11:35:27.298Z,13.25
2022-08-28T11:37:54.914Z,16.73
2022-08-28T11:40:30.443Z,17.05
2022-08-28T11:43:15.916Z,19.45
2022-08-28T11:45:46.791Z,15.60
2022-08-28T11:48:36.006Z,16.52
2022-08-28T11:51:07.403Z,15.02
2022-08-28T11:53:33.908Z,16.90
2022-08-28T11:56:31.100Z,16.70
2022-08-28T11:59:13.266Z,16.17
2022-08-28T12:04:13.408Z,11.77
2022-08-28T12:06:49.409Z,14.93
2022-08-28T12:09:37.375Z,10.60
2022-08-28T12:12:24.296Z,13.38
2022-08-28T12:15:07.758Z,10.85
2022-08-28T12:17:45.051Z,14.60
2022-08-28T12:20:20.907Z,12.45
2022-08-28T12:22:54.347Z,11.05
2022-08-28T12:25:31.819Z,13.25
2022-08-28T12:28:03.876Z,14.60
2022-08-28T12:30:40.263Z,11.65
2022-08-28T12:33:28.261Z,13.02
2022-08-28T12:36:02.452Z,12.05
2022-08-28T12:38:32.420Z,12.32
2022-08-28T12:40:59.383Z,19.30
2022-08-28T12:43:34.533Z,13.20
2022-08-28T12:46:29.888Z,16.60
2022-08-28T12:49:02.465Z,15.80
2022-08-28T12:53:50.643Z,15.98
2022-08-28T12:56:20.565Z,17.02
2022-08-28T12:58:48.981Z,12.82
2022-08-28T13:01:21.819Z,12.48
2022-08-28T13:03:56.909Z,10.68
2022-08-28T13:06:29.544Z,12.45
2022-08-28T13:09:07.161Z,16.05
2022-08-28T13:11:39.088Z,13.35
2022-08-28T13:14:08.457Z,15.45
2022-08-28T13:16:44.620Z,16.77
2022-08-28T13:19:25.923Z,12.10
2022-08-28T13:22:00.436Z,12.82
2022-08-28T13:24:27.333Z,14.63
2022-08-28T13:27:09.505Z,17.70
2022-08-28T13:29:36.943Z,14.40
2022-08-28T13:34:31.994Z,13.43
2022-08-28T13:37:01.468Z,13.00
2022-08-28T13:39:30.697Z,23.48
2022-08-28T13:42:07.025Z,12.38
2022-08-28T13:44:36.717Z,15.32
2022-08-28T13:47:06.759Z,12.93
2022-08-28T13:49:34.976Z,17.42
2022-08-28T13:52:07.019Z,16.15
2022-08-28T13:54:34.797Z,16.23
2022-08-28T13:57:02.716Z,14.07
2022-08-28T13:59:29.830Z,12.07
2022-08-28T14:02:18.422Z,14.00
2022-08-28T14:04:45.173Z,14.75
2022-08-28T14:07:13.226Z,13.00
2022-08-28T14:09:40.788Z,14.82
2022-08-28T14:12:08.801Z,13.55
2022-08-28T14:14:37.116Z,14.82
2022-08-28T14:17:04.584Z,14.60
2022-08-28T14:19:31.284Z,15.15
2022-08-28T14:21:57.905Z,19.40
2022-08-28T14:24:24.961Z,17.73
2022-08-28T14:26:51.768Z,17.65
2022-08-28T14:29:19.330Z,17.63
2022-08-28T14:31:46.537Z,17.13
2022-08-28T14:34:17.719Z,19.30
2022-08-28T14:36:44.389Z,25.90
2022-08-28T14:39:12.480Z,16.83
2022-08-28T14:41:44.403Z,15.50
2022-08-28T14:44:11.015Z,15.00
2022-08-28T14:46:37.995Z,18.98
2022-08-28T14:49:10.216Z,13.65
2022-08-28T14:51:38.828Z,18.35
2022-08-28T14:54:05.881Z,14.20
2022-08-28T14:56:32.674Z,13.57
2022-08-28T14:59:00.796Z,16.92
2022-08-28T15:01:40.382Z,14.45
2022-08-28T15:04:13.378Z,19.08
2022-08-28T15:06:42.496Z,13.93
2022-08-28T15:09:13.969Z,18.88
2022-08-28T15:11:43.519Z,21.33
2022-08-28T15:14:10.960Z,18.25
2022-08-28T15:16:45.484Z,17.30
2022-08-28T15:19:15.841Z,16.05
2022-08-28T15:21:49.388Z,20.00
2022-08-28T15:24:18.583Z,20.95
2022-08-28T15:26:45.311Z,18.20
2022-08-28T15:29:12.040Z,19.65
2022-08-28T15:31:42.488Z,22.50
2022-08-28T15:34:13.313Z,21.80
2022-08-28T15:36:42.080Z,27.70
2022-08-28T15:39:28.453Z,24.15
2022-08-28T15:41:56.245Z,24.52
2022-08-28T15:44:23.318Z,19.48
2022-08-28T15:46:55.800Z,24.30
2022-08-28T15:49:24.152Z,24.50
2022-08-28T15:51:52.090Z,29.75
2022-08-28T15:54:20.212Z,25.05
2022-08-28T15:56:46.817Z,26.55
2022-08-28T15:59:17.621Z,29.75
2022-08-28T16:01:47.388Z,32.33
2022-08-28T16:04:14.156Z,36.47
2022-08-28T16:06:41.716Z,34.80
2022-08-28T16:09:09.408Z,40.95
2022-08-28T16:11:38.672Z,31.63
2022-08-28T16:14:05.500Z,33.83
2022-08-28T16:16:32.476Z,39.47
2022-08-28T16:18:59.262Z,35.88
2022-08-28T16:21:28.099Z,36.22
2022-08-28T16:26:17.692Z,37.33
2022-08-28T16:28:47.316Z,35.72
2022-08-28T16:31:20.480Z,32.33
2022-08-28T16:33:49.717Z,33.05
2022-08-28T16:36:17.157Z,31.17
2022-08-28T16:38:46.821Z,30.52
2022-08-28T16:41:22.516Z,27.13
2022-08-28T16:43:50.493Z,19.70
2022-08-28T16:46:23.868Z,17.02
2022-08-28T16:48:51.564Z,16.50
2022-08-28T16:51:19.813Z,19.92
2022-08-28T16:53:47.089Z,12.57
2022-08-28T16:56:17.117Z,14.40
2022-08-28T16:58:45.907Z,14.27
2022-08-28T17:01:13.560Z,16.55
2022-08-28T17:06:10.727Z,14.02
2022-08-28T17:08:37.375Z,16.55
2022-08-28T17:11:04.120Z,15.20
2022-08-28T17:13:30.740Z,16.50
2022-08-28T17:15:57.398Z,20.20
2022-08-28T17:18:24.041Z,16.10
2022-08-28T17:21:09.079Z,16.88
2022-08-28T17:26:06.530Z,17.13
2022-08-28T17:28:33.529Z,16.10
2022-08-28T17:31:00.404Z,18.15
2022-08-28T17:33:27.770Z,17.33
2022-08-28T17:35:55.694Z,30.20
2022-08-28T17:38:22.275Z,24.38
2022-08-28T17:40:48.864Z,31.13
2022-08-28T17:43:15.537Z,18.58
2022-08-28T17:45:42.489Z,16.05
2022-08-28T17:48:09.401Z,13.88
2022-08-28T17:50:36.017Z,13.02
2022-08-28T17:53:02.683Z,16.77
2022-08-28T17:55:29.359Z,15.80
2022-08-28T17:57:56.045Z,14.98
2022-08-28T18:00:22.796Z,18.98
2022-08-28T18:02:50.994Z,15.38
2022-08-28T18:05:18.107Z,16.88
2022-08-28T18:07:44.769Z,17.77
2022-08-28T18:10:12.069Z,16.88
2022-08-28T18:14:52.082Z,16.88
2022-08-28T18:17:19.860Z,16.33
2022-08-28T18:19:46.435Z,16.42
2022-08-28T18:22:13.849Z,14.88
2022-08-28T18:24:41.221Z,13.20
2022-08-28T18:27:09.344Z,17.63
2022-08-28T18:29:36.743Z,17.95
2022-08-28T18:32:10.113Z,15.30
2022-08-28T18:34:36.803Z,20.45
2022-08-28T18:37:03.694Z,17.83
2022-08-28T18:39:30.504Z,22.10
2022-08-28T18:41:58.338Z,18.25
2022-08-28T18:44:27.835Z,19.15
2022-08-28T18:46:54.876Z,22.95
2022-08-28T18:49:21.726Z,17.27
2022-08-28T18:51:48.408Z,16.23
2022-08-28T18:54:18.554Z,16.50
2022-08-28T18:56:48.329Z,16.63
2022-08-28T18:59:20.145Z,22.90
2022-08-28T19:01:46.957Z,23.58
2022-08-28T19:06:57.430Z,21.77
2022-08-28T19:09:30.329Z,17.15
2022-08-28T19:11:59.023Z,17.42
2022-08-28T19:14:28.085Z,19.85
2022-08-28T19:16:55.542Z,19.05
2022-08-28T19:19:27.359Z,17.63
2022-08-28T19:21:54.310Z,18.35
2022-08-28T19:24:22.432Z,15.77
2022-08-28T19:26:49.237Z,16.60
2022-08-28T19:29:16.490Z,19.73
2022-08-28T19:31:46.276Z,24.25
2022-08-28T19:34:13.094Z,23.02
2022-08-28T19:36:43.742Z,15.90
2022-08-28T19:39:10.718Z,24.33
2022-08-28T19:41:37.634Z,19.25
2022-08-28T19:44:05.859Z,19.52
2022-08-28T19:46:34.302Z,23.20
2022-08-28T19:49:04.239Z,23.25
2022-08-28T19:51:30.923Z,23.08
2022-08-28T19:54:02.700Z,22.98
2022-08-28T20:01:30.383Z,25.15
2022-08-28T20:04:01.154Z,29.20
2022-08-28T20:06:33.062Z,32.17
2022-08-28T20:09:01.036Z,29.30
2022-08-28T20:11:30.440Z,31.50
2022-08-28T20:14:04.252Z,32.08
2022-08-28T20:16:34.287Z,33.15
2022-08-28T20:19:02.907Z,38.17
2022-08-28T20:21:36.808Z,35.67
2022-08-28T20:24:09.273Z,36.53
2022-08-28T20:26:37.038Z,30.85
2022-08-28T20:29:06.462Z,34.28
2022-08-28T20:31:33.937Z,29.10
2022-08-28T20:34:03.279Z,29.33
2022-08-28T20:36:29.884Z,37.15
2022-08-28T20:38:56.909Z,42.05
2022-08-28T20:41:26.298Z,30.23
2022-08-28T20:43:52.879Z,32.30
2022-08-28T20:46:19.784Z,37.88
2022-08-28T20:48:46.655Z,34.60
2022-08-28T20:51:13.299Z,36.90
2022-08-28T20:53:40.067Z,43.75
2022-08-28T20:56:09.959Z,37.67
2022-08-28T20:58:37.855Z,42.45
2022-08-28T21:01:05.607Z,42.28
2022-08-28T21:03:32.423Z,39.67
2022-08-28T21:05:59.036Z,46.08
2022-08-28T21:08:25.816Z,50.72
2022-08-28T21:10:52.734Z,46.25
2022-08-28T21:13:19.571Z,47.65
2022-08-28T21:15:46.379Z,51.78
2022-08-28T21:18:13.801Z,53.17
2022-08-28T21:20:40.872Z,56.53
2022-08-28T21:23:07.450Z,67.25
2022-08-28T21:25:34.136Z,66.35
2022-08-28T21:28:04.090Z,64.07
2022-08-28T21:30:31.206Z,61.80
2022-08-28T21:32:58.000Z,86.03
2022-08-28T21:35:24.680Z,70.38
2022-08-28T21:37:51.512Z,71.45
2022-08-28T21:40:19.479Z,64.40
2022-08-28T21:42:46.107Z,71.10
2022-08-28T21:45:13.298Z,74.50
2022-08-28T21:47:41.616Z,72.15
2022-08-28T21:50:08.861Z,70.50
2022-08-28T21:52:35.677Z,75.68
2022-08-28T21:55:08.460Z,92.72
2022-08-28T21:57:35.349Z,93.38
2022-08-28T22:00:02.149Z,80.32
2022-08-28T22:02:29.012Z,79.15
2022-08-28T22:04:55.800Z,86.80
2022-08-28T22:07:22.553Z,90.38
2022-08-28T22:09:49.361Z,86.18
2022-08-28T22:12:16.651Z,92.57
2022-08-28T22:14:43.313Z,91.53
2022-08-28T22:17:11.383Z,98.30
2022-08-28T22:19:39.572Z,96.22
2022-08-28T22:22:25.091Z,95.57
2022-08-28T22:24:51.780Z,104.85
2022-08-28T22:27:18.385Z,99.10
2022-08-28T22:29:45.055Z,106.53
2022-08-28T22:32:11.961Z,93.88
2022-08-28T22:34:41.263Z,104.65
2022-08-28T22:37:11.420Z,97.38
2022-08-28T22:39:42.636Z,96.47
2022-08-28T22:44:32.020Z,91.70
2022-08-28T22:46:58.696Z,88.80
2022-08-28T22:49:25.631Z,78.75
2022-08-28T22:51:52.284Z,89.40
2022-08-28T22:54:18.888Z,87.25
2022-08-28T22:56:45.481Z,80.47
2022-08-28T22:59:12.092Z,84.10
2022-08-28T23:01:42.249Z,68.85
2022-08-28T23:04:09.931Z,68.35
2022-08-28T23:06:39.901Z,62.10
2022-08-28T23:09:08.102Z,65.15
2022-08-28T23:11:35.923Z,57.47
2022-08-28T23:14:03.979Z,56.13
2022-08-28T23:16:31.216Z,52.92
2022-08-28T23:19:08.912Z,57.65
2022-08-28T23:21:36.593Z,61.53
2022-08-28T23:24:10.033Z,52.28
2022-08-28T23:26:36.561Z,56.67
2022-08-28T23:29:03.464Z,55.45
2022-08-28T23:31:30.105Z,54.60
2022-08-28T23:33:56.719Z,63.88
2022-08-28T23:36:23.747Z,53.42
2022-08-28T23:38:50.627Z,65.63
2022-08-28T23:41:18.684Z,55.40
2022-08-28T23:43:45.998Z,56.60
2022-08-28T23:46:16.370Z,52.78
2022-08-28T23:48:43.768Z,57.08
2022-08-28T23:51:14.257Z,63.17
2022-08-28T23:53:43.241Z,57.03
2022-08-28T23:56:10.297Z,55.88
2022-08-28T23:58:37.032Z,59.38
